createdAt,value
2018-01-18T00:00:30.220Z,0
2018-01-18T00:01:40.387Z,0
2018-01-18T00:02:50.556Z,0
2018-01-18T00:04:00.680Z,0
2018-01-18T00:05:10.596Z,0
2018-01-18T00:06:20.726Z,0
2018-01-18T00:07:30.992Z,0
2018-01-18T00:08:41.168Z,0
2018-01-18T00:09:51.327Z,0
2018-01-18T00:11:01.437Z,0
2018-01-18T00:12:11.361Z,0
2018-01-18T00:13:21.518Z,0
2018-01-18T00:14:31.657Z,0
2018-01-18T00:15:41.553Z,0
2018-01-18T00:16:51.696Z,0
2018-01-18T00:18:01.859Z,0
2018-01-18T00:19:11.983Z,0
2018-01-18T00:20:22.103Z,0
2018-01-18T00:21:32.254Z,0
2018-01-18T00:22:42.356Z,0
2018-01-18T00:23:52.483Z,0
2018-01-18T00:25:02.679Z,0
2018-01-18T00:26:12.912Z,0
2018-01-18T00:27:23.045Z,0
2018-01-18T00:28:33.290Z,0
2018-01-18T00:29:43.163Z,0
2018-01-18T00:30:53.307Z,0
2018-01-18T00:32:03.488Z,0
2018-01-18T00:33:13.359Z,0
2018-01-18T00:34:23.474Z,0
2018-01-18T00:35:33.711Z,0
2018-01-18T00:36:43.922Z,0
2018-01-18T00:37:54.077Z,0
2018-01-18T00:39:04.333Z,0
2018-01-18T00:40:14.689Z,0
2018-01-18T00:41:24.825Z,0
2018-01-18T00:42:35.050Z,0
2018-01-18T00:43:45.272Z,0
2018-01-18T00:44:55.443Z,0
2018-01-18T00:46:05.646Z,0
2018-01-18T00:47:15.835Z,0
2018-01-18T00:48:25.996Z,0
2018-01-18T00:49:36.204Z,0
2018-01-18T00:50:46.357Z,0
2018-01-18T00:51:56.479Z,0
2018-01-18T00:53:06.626Z,0
2018-01-18T00:54:16.893Z,0
2018-01-18T00:55:27.043Z,0
2018-01-18T00:56:37.190Z,0
2018-01-18T00:57:47.386Z,0
2018-01-18T00:58:57.544Z,0
2018-01-18T01:00:07.782Z,0
2018-01-18T01:01:18.011Z,0
2018-01-18T01:02:27.903Z,0
2018-01-18T01:03:38.243Z,0
2018-01-18T01:04:48.364Z,0
2018-01-18T01:05:58.531Z,0
2018-01-18T01:07:08.741Z,0
2018-01-18T01:08:18.931Z,0
2018-01-18T01:09:29.170Z,0
2018-01-18T01:10:39.330Z,0
2018-01-18T01:11:49.508Z,0
2018-01-18T01:12:59.600Z,0
2018-01-18T01:14:09.732Z,0
2018-01-18T01:15:19.866Z,0
2018-01-18T01:16:30.102Z,0
2018-01-18T01:17:40.243Z,0
2018-01-18T01:18:50.403Z,0
2018-01-18T01:20:00.500Z,0
2018-01-18T01:21:10.612Z,0
2018-01-18T01:22:20.736Z,0
2018-01-18T01:23:30.931Z,0
2018-01-18T01:24:41.055Z,0
2018-01-18T01:25:51.240Z,0
2018-01-18T01:27:01.099Z,0
2018-01-18T01:28:11.221Z,0
2018-01-18T01:29:21.430Z,0
2018-01-18T01:30:31.572Z,0
2018-01-18T01:31:41.524Z,0
2018-01-18T01:32:51.686Z,0
2018-01-18T01:34:01.574Z,0
2018-01-18T01:35:11.715Z,0
2018-01-18T01:36:21.889Z,0
2018-01-18T01:37:32.112Z,0
2018-01-18T01:38:42.270Z,0
2018-01-18T01:39:52.397Z,0
2018-01-18T01:41:02.512Z,0
2018-01-18T01:42:12.632Z,0
2018-01-18T01:43:23.727Z,0
2018-01-18T01:44:33.846Z,0
2018-01-18T01:45:45.127Z,0
2018-01-18T01:46:55.285Z,0
2018-01-18T01:48:05.420Z,0
2018-01-18T01:49:15.629Z,0
2018-01-18T01:50:25.738Z,0
2018-01-18T01:51:35.854Z,0
2018-01-18T01:52:46.008Z,0
2018-01-18T01:53:56.108Z,0
2018-01-18T01:55:06.219Z,0
2018-01-18T01:56:16.329Z,0
2018-01-18T01:57:26.437Z,0
2018-01-18T01:58:36.590Z,0
2018-01-18T01:59:46.820Z,0
2018-01-18T02:00:56.981Z,0
2018-01-18T02:02:07.156Z,0
2018-01-18T02:03:17.019Z,0
2018-01-18T02:04:27.148Z,0
2018-01-18T02:05:37.400Z,0
2018-01-18T02:06:47.568Z,0
2018-01-18T02:07:57.742Z,0
2018-01-18T02:09:07.897Z,0
2018-01-18T02:10:17.999Z,0
2018-01-18T02:11:28.106Z,0
2018-01-18T02:12:38.332Z,0
2018-01-18T02:13:48.524Z,0
2018-01-18T02:14:58.681Z,0
2018-01-18T02:16:08.872Z,0
2018-01-18T02:17:19.247Z,0
2018-01-18T02:18:29.363Z,0
2018-01-18T02:19:39.493Z,0
2018-01-18T02:20:49.692Z,0
2018-01-18T02:21:59.923Z,0
2018-01-18T02:23:10.087Z,0
2018-01-18T02:24:20.197Z,0
2018-01-18T02:25:30.310Z,0
2018-01-18T02:26:40.421Z,0
2018-01-18T02:27:50.789Z,0
2018-01-18T02:29:00.902Z,0
2018-01-18T02:30:11.126Z,0
2018-01-18T02:31:21.242Z,0
2018-01-18T02:32:31.365Z,0
2018-01-18T02:33:41.703Z,0
2018-01-18T02:34:51.193Z,0
2018-01-18T02:36:01.379Z,0
2018-01-18T02:37:11.511Z,0
2018-01-18T02:38:21.640Z,0
2018-01-18T02:39:31.849Z,0
2018-01-18T02:40:41.998Z,0
2018-01-18T02:41:52.169Z,0
2018-01-18T02:43:02.276Z,0
2018-01-18T02:44:12.393Z,0
2018-01-18T02:45:22.564Z,0
2018-01-18T02:46:32.746Z,0
2018-01-18T02:47:42.980Z,0
2018-01-18T02:48:53.156Z,0
2018-01-18T02:50:03.392Z,0
2018-01-18T02:51:13.287Z,0
2018-01-18T02:52:23.422Z,0
2018-01-18T02:53:33.557Z,0
2018-01-18T02:54:43.693Z,0
2018-01-18T02:55:53.993Z,0
2018-01-18T02:57:04.143Z,0
2018-01-18T02:58:14.346Z,0
2018-01-18T02:59:25.623Z,0
2018-01-18T03:00:35.774Z,0
2018-01-18T03:01:46.036Z,0
2018-01-18T03:02:55.958Z,0
2018-01-18T03:04:06.069Z,0
2018-01-18T03:05:16.291Z,0
2018-01-18T03:06:26.442Z,0
2018-01-18T03:07:36.779Z,0
2018-01-18T03:08:46.967Z,0
2018-01-18T03:09:57.104Z,0
2018-01-18T03:11:07.359Z,0
2018-01-18T03:12:17.514Z,0
2018-01-18T03:13:27.653Z,0
2018-01-18T03:14:37.769Z,0
2018-01-18T03:15:47.880Z,0
2018-01-18T03:16:58.051Z,0
2018-01-18T03:18:08.288Z,0
2018-01-18T03:19:18.409Z,0
2018-01-18T03:20:28.517Z,0
2018-01-18T03:21:38.647Z,0
2018-01-18T03:22:48.536Z,0
2018-01-18T03:23:58.821Z,0
2018-01-18T03:25:09.057Z,0
2018-01-18T03:26:19.322Z,0
2018-01-18T03:27:29.554Z,0
2018-01-18T03:28:39.774Z,0
2018-01-18T03:29:49.889Z,0
2018-01-18T03:30:59.998Z,0
2018-01-18T03:32:10.115Z,0
2018-01-18T03:33:20.229Z,0
2018-01-18T03:34:30.346Z,0
2018-01-18T03:35:40.436Z,0
2018-01-18T03:36:50.545Z,0
2018-01-18T03:38:00.648Z,0
2018-01-18T03:39:10.839Z,0
2018-01-18T03:40:20.985Z,0
2018-01-18T03:41:30.937Z,0
2018-01-18T03:42:41.087Z,0
2018-01-18T03:43:51.316Z,0
2018-01-18T03:45:01.455Z,0
2018-01-18T03:46:12.533Z,0
2018-01-18T03:47:22.641Z,0
2018-01-18T03:48:32.780Z,0
2018-01-18T03:49:42.551Z,0
2018-01-18T03:50:52.661Z,0
2018-01-18T03:52:02.781Z,0
2018-01-18T03:53:12.915Z,0
2018-01-18T03:54:23.019Z,0
2018-01-18T03:55:33.157Z,0
2018-01-18T03:56:43.286Z,0
2018-01-18T03:57:53.477Z,0
2018-01-18T03:59:03.611Z,0
2018-01-18T04:00:13.768Z,0
2018-01-18T04:01:23.919Z,0
2018-01-18T04:02:34.109Z,0
2018-01-18T04:03:44.239Z,0
2018-01-18T04:04:54.386Z,0
2018-01-18T04:06:04.592Z,0
2018-01-18T04:07:14.690Z,0
2018-01-18T04:08:24.842Z,0
2018-01-18T04:09:35.077Z,0
2018-01-18T04:10:45.308Z,0
2018-01-18T04:11:55.650Z,0
2018-01-18T04:13:06.477Z,0
2018-01-18T04:14:16.586Z,0
2018-01-18T04:15:26.749Z,0
2018-01-18T04:16:36.923Z,0
2018-01-18T04:17:47.095Z,0
2018-01-18T04:18:56.968Z,0
2018-01-18T04:20:07.133Z,0
2018-01-18T04:21:17.304Z,0
2018-01-18T04:22:27.413Z,0
2018-01-18T04:23:37.514Z,0
2018-01-18T04:24:47.425Z,0
2018-01-18T04:25:57.428Z,0
2018-01-18T04:27:07.536Z,0
2018-01-18T04:28:17.696Z,0
2018-01-18T04:29:27.815Z,0
2018-01-18T04:30:37.985Z,0
2018-01-18T04:31:48.094Z,0
2018-01-18T04:32:58.229Z,0
2018-01-18T04:34:08.374Z,0
2018-01-18T04:35:18.619Z,0
2018-01-18T04:36:28.765Z,0
2018-01-18T04:37:38.923Z,0
2018-01-18T04:38:48.922Z,0
2018-01-18T04:39:59.087Z,0
2018-01-18T04:41:09.216Z,0
2018-01-18T04:42:19.334Z,0
2018-01-18T04:43:29.459Z,0
2018-01-18T04:44:39.809Z,0
2018-01-18T04:45:49.954Z,0
2018-01-18T04:47:00.262Z,0
2018-01-18T04:48:10.447Z,0
2018-01-18T04:49:20.565Z,0
2018-01-18T04:50:30.694Z,0
2018-01-18T04:51:40.785Z,0
2018-01-18T04:52:50.905Z,0
2018-01-18T04:54:01.059Z,0
2018-01-18T04:55:11.219Z,0
2018-01-18T04:56:21.526Z,0
2018-01-18T04:57:31.895Z,0
2018-01-18T04:58:42.013Z,0
2018-01-18T04:59:52.132Z,0
2018-01-18T05:01:02.248Z,0
2018-01-18T05:02:12.094Z,0
2018-01-18T05:03:22.342Z,0
2018-01-18T05:04:32.501Z,0
2018-01-18T05:05:42.676Z,0
2018-01-18T05:06:52.796Z,0
2018-01-18T05:08:02.893Z,0
2018-01-18T05:09:13.039Z,0
2018-01-18T05:10:22.648Z,0
2018-01-18T05:11:32.774Z,0
2018-01-18T05:12:42.640Z,0
2018-01-18T05:13:52.944Z,0
2018-01-18T05:15:03.160Z,0
2018-01-18T05:16:13.364Z,0
2018-01-18T05:17:23.562Z,0
2018-01-18T05:18:33.984Z,0
2018-01-18T05:19:44.078Z,0
2018-01-18T05:20:54.235Z,0
2018-01-18T05:22:04.485Z,0
2018-01-18T05:23:14.677Z,0
2018-01-18T05:24:24.907Z,0
2018-01-18T05:25:35.133Z,0
2018-01-18T05:26:45.354Z,0
2018-01-18T05:27:55.571Z,0
2018-01-18T05:29:05.787Z,0
2018-01-18T05:30:15.649Z,0
2018-01-18T05:31:25.821Z,0
2018-01-18T05:32:36.040Z,0
2018-01-18T05:33:46.168Z,0
2018-01-18T05:34:56.344Z,0
2018-01-18T05:36:06.549Z,0
2018-01-18T05:37:16.708Z,0
2018-01-18T05:38:26.854Z,0
2018-01-18T05:39:36.966Z,0
2018-01-18T05:40:47.107Z,0
2018-01-18T05:41:57.298Z,0
2018-01-18T05:43:07.515Z,0
2018-01-18T05:44:17.751Z,0
2018-01-18T05:45:27.933Z,0
2018-01-18T05:46:38.163Z,0
2018-01-18T05:47:48.315Z,0
2018-01-18T05:48:58.447Z,0
2018-01-18T05:50:08.576Z,0
2018-01-18T05:51:18.672Z,0
2018-01-18T05:52:28.831Z,0
2018-01-18T05:53:38.936Z,0
2018-01-18T05:54:49.051Z,0
2018-01-18T05:55:59.435Z,0
2018-01-18T05:57:09.576Z,0
2018-01-18T05:58:19.671Z,0
2018-01-18T05:59:29.823Z,0
2018-01-18T06:00:39.949Z,0
2018-01-18T06:01:50.078Z,0
2018-01-18T06:03:00.239Z,0
2018-01-18T06:04:10.479Z,0
2018-01-18T06:05:20.804Z,0
2018-01-18T06:06:31.041Z,0
2018-01-18T06:07:41.208Z,0
2018-01-18T06:08:51.388Z,0
2018-01-18T06:10:01.587Z,0
2018-01-18T06:11:11.854Z,0
2018-01-18T06:12:21.711Z,0
2018-01-18T06:13:31.860Z,0
2018-01-18T06:14:41.985Z,0
2018-01-18T06:15:52.173Z,0
2018-01-18T06:17:02.413Z,0
2018-01-18T06:18:12.664Z,0
2018-01-18T06:19:22.826Z,0
2018-01-18T06:20:33.015Z,0
2018-01-18T06:21:42.885Z,0
2018-01-18T06:22:52.793Z,0
2018-01-18T06:24:02.643Z,0
2018-01-18T06:25:12.764Z,0
2018-01-18T06:26:22.886Z,0
2018-01-18T06:27:33.070Z,0
2018-01-18T06:28:43.222Z,0
2018-01-18T06:29:53.084Z,0
2018-01-18T06:31:03.264Z,0
2018-01-18T06:32:13.425Z,0
2018-01-18T06:33:23.655Z,0
2018-01-18T06:34:33.557Z,0
2018-01-18T06:35:43.671Z,0
2018-01-18T06:36:53.550Z,0
2018-01-18T06:38:03.734Z,0
2018-01-18T06:39:13.853Z,0
2018-01-18T06:40:23.983Z,0
2018-01-18T06:41:34.127Z,4
2018-01-18T06:42:44.392Z,4
2018-01-18T06:43:54.617Z,0
2018-01-18T06:45:04.831Z,0
2018-01-18T06:46:14.937Z,4
2018-01-18T06:47:25.047Z,4
2018-01-18T06:48:35.164Z,4
2018-01-18T06:49:45.352Z,4
2018-01-18T06:50:55.519Z,4
2018-01-18T06:52:05.661Z,4
2018-01-18T06:53:15.485Z,8
2018-01-18T06:54:25.708Z,8
2018-01-18T06:55:35.869Z,8
2018-01-18T06:56:45.746Z,12
2018-01-18T06:57:55.897Z,12
2018-01-18T06:59:06.023Z,16
2018-01-18T07:00:16.193Z,20
2018-01-18T07:01:26.290Z,20
2018-01-18T07:02:36.432Z,24
2018-01-18T07:03:46.564Z,28
2018-01-18T07:04:56.719Z,32
2018-01-18T07:06:06.935Z,28
2018-01-18T07:07:17.086Z,36
2018-01-18T07:08:26.943Z,36
2018-01-18T07:09:37.172Z,40
2018-01-18T07:10:47.391Z,48
2018-01-18T07:11:57.305Z,48
2018-01-18T07:13:07.416Z,52
2018-01-18T07:14:17.547Z,52
2018-01-18T07:15:27.774Z,56
2018-01-18T07:16:38.015Z,56
2018-01-18T07:17:48.227Z,60
2018-01-18T07:18:58.374Z,64
2018-01-18T07:20:08.598Z,68
2018-01-18T07:21:18.718Z,64
2018-01-18T07:22:28.867Z,68
2018-01-18T07:23:38.997Z,64
2018-01-18T07:24:49.138Z,64
2018-01-18T07:25:59.473Z,64
2018-01-18T07:27:09.607Z,56
2018-01-18T07:28:19.738Z,60
2018-01-18T07:29:29.896Z,60
2018-01-18T07:30:39.817Z,68
2018-01-18T07:31:49.667Z,68
2018-01-18T07:32:59.534Z,68
2018-01-18T07:34:09.774Z,68
2018-01-18T07:35:20.059Z,68
2018-01-18T07:36:30.274Z,72
2018-01-18T07:37:40.534Z,68
2018-01-18T07:38:50.690Z,76
2018-01-18T07:40:00.853Z,92
2018-01-18T07:41:11.065Z,100
2018-01-18T07:42:20.934Z,100
2018-01-18T07:43:31.097Z,100
2018-01-18T07:44:41.216Z,96
2018-01-18T07:45:51.337Z,108
2018-01-18T07:47:01.463Z,124
2018-01-18T07:48:11.592Z,124
2018-01-18T07:49:21.739Z,108
2018-01-18T07:50:31.993Z,108
2018-01-18T07:51:42.151Z,104
2018-01-18T07:52:52.360Z,108
2018-01-18T07:54:02.615Z,112
2018-01-18T07:55:12.824Z,112
2018-01-18T07:56:22.959Z,112
2018-01-18T07:57:33.307Z,120
2018-01-18T07:58:43.531Z,124
2018-01-18T07:59:53.748Z,112
2018-01-18T08:01:04.064Z,112
2018-01-18T08:02:14.192Z,116
2018-01-18T08:03:24.072Z,128
2018-01-18T08:04:34.289Z,124
2018-01-18T08:05:44.192Z,144
2018-01-18T08:06:54.349Z,160
2018-01-18T08:08:04.458Z,176
2018-01-18T08:09:14.617Z,180
2018-01-18T08:10:24.844Z,184
2018-01-18T08:11:35.004Z,212
2018-01-18T08:12:44.847Z,216
2018-01-18T08:13:54.959Z,224
2018-01-18T08:15:05.118Z,240
2018-01-18T08:16:15.252Z,252
2018-01-18T08:17:25.375Z,316
2018-01-18T08:18:35.476Z,392
2018-01-18T08:19:45.606Z,452
2018-01-18T08:20:55.830Z,440
2018-01-18T08:22:05.983Z,428
2018-01-18T08:23:16.195Z,352
2018-01-18T08:24:26.406Z,428
2018-01-18T08:25:36.641Z,604
2018-01-18T08:26:46.838Z,792
2018-01-18T08:27:56.686Z,692
2018-01-18T08:29:06.828Z,840
2018-01-18T08:30:17.081Z,644
2018-01-18T08:31:27.243Z,600
2018-01-18T08:32:37.120Z,492
2018-01-18T08:33:47.245Z,360
2018-01-18T08:34:57.290Z,416
2018-01-18T08:36:07.420Z,380
2018-01-18T08:37:17.358Z,396
2018-01-18T08:38:27.455Z,348
2018-01-18T08:39:37.606Z,348
2018-01-18T08:40:47.728Z,316
2018-01-18T08:41:57.830Z,400
2018-01-18T08:43:08.019Z,532
2018-01-18T08:44:18.281Z,516
2018-01-18T08:45:28.451Z,652
2018-01-18T08:46:38.721Z,764
2018-01-18T08:47:48.886Z,700
2018-01-18T08:48:59.111Z,568
2018-01-18T08:50:09.336Z,844
2018-01-18T08:51:19.557Z,776
2018-01-18T08:52:29.842Z,796
2018-01-18T08:53:40.055Z,792
2018-01-18T08:54:50.278Z,876
2018-01-18T08:56:00.486Z,1024
2018-01-18T08:57:10.769Z,972
2018-01-18T08:58:20.925Z,1132
2018-01-18T08:59:31.130Z,1164
2018-01-18T09:00:41.254Z,968
2018-01-18T09:01:51.427Z,704
2018-01-18T09:03:01.601Z,764
2018-01-18T09:04:11.516Z,860
2018-01-18T09:05:21.719Z,1120
2018-01-18T09:06:31.905Z,1472
2018-01-18T09:07:42.024Z,1636
2018-01-18T09:08:52.148Z,1976
2018-01-18T09:10:02.292Z,2380
2018-01-18T09:11:12.423Z,2300
2018-01-18T09:12:22.602Z,1984
2018-01-18T09:13:32.835Z,1888
2018-01-18T09:14:43.090Z,1724
2018-01-18T09:15:53.329Z,1676
2018-01-18T09:17:03.551Z,1504
2018-01-18T09:18:13.779Z,1988
2018-01-18T09:19:23.918Z,2136
2018-01-18T09:20:34.190Z,2328
2018-01-18T09:21:44.489Z,2080
2018-01-18T09:22:54.619Z,2096
2018-01-18T09:24:04.803Z,2488
2018-01-18T09:25:15.072Z,2572
2018-01-18T09:26:25.306Z,1908
2018-01-18T09:27:35.491Z,1764
2018-01-18T09:28:45.746Z,1740
2018-01-18T09:29:55.908Z,1724
2018-01-18T09:31:06.120Z,1868
2018-01-18T09:32:16.404Z,1612
2018-01-18T09:33:26.602Z,1832
2018-01-18T09:34:37.668Z,1796
2018-01-18T09:35:47.780Z,2568
2018-01-18T09:36:57.903Z,3364
2018-01-18T09:38:08.058Z,3948
2018-01-18T09:39:18.307Z,4320
2018-01-18T09:40:28.437Z,4400
2018-01-18T09:41:38.671Z,4428
2018-01-18T09:42:48.829Z,4632
2018-01-18T09:43:58.984Z,4340
2018-01-18T09:45:09.215Z,3568
2018-01-18T09:46:19.425Z,3852
2018-01-18T09:47:29.562Z,5056
2018-01-18T09:48:39.677Z,6048
2018-01-18T09:49:49.850Z,6908
2018-01-18T09:51:00.018Z,5632
2018-01-18T09:52:09.930Z,4604
2018-01-18T09:53:20.070Z,4948
2018-01-18T09:54:30.224Z,4340
2018-01-18T09:55:40.571Z,3628
2018-01-18T09:56:50.669Z,4388
2018-01-18T09:58:00.805Z,3808
2018-01-18T09:59:10.949Z,6380
2018-01-18T10:00:21.182Z,7324
2018-01-18T10:01:31.370Z,6504
2018-01-18T10:02:41.479Z,5924
2018-01-18T10:03:51.630Z,4936
2018-01-18T10:05:01.761Z,4980
2018-01-18T10:06:11.889Z,5516
2018-01-18T10:07:22.056Z,4632
2018-01-18T10:08:32.010Z,4196
2018-01-18T10:09:42.142Z,3184
2018-01-18T10:10:52.267Z,2528
2018-01-18T10:12:02.422Z,3732
2018-01-18T10:13:12.729Z,4880
2018-01-18T10:14:23.229Z,5412
2018-01-18T10:15:33.372Z,6404
2018-01-18T10:16:43.500Z,5780
2018-01-18T10:17:53.656Z,5176
2018-01-18T10:19:03.827Z,5732
2018-01-18T10:20:14.034Z,4844
2018-01-18T10:21:24.299Z,3736
2018-01-18T10:22:34.456Z,3320
2018-01-18T10:23:44.606Z,9324
2018-01-18T10:24:54.834Z,5768
2018-01-18T10:26:04.987Z,3772
2018-01-18T10:27:15.366Z,4268
2018-01-18T10:28:25.483Z,3964
2018-01-18T10:29:35.623Z,3884
2018-01-18T10:30:45.813Z,3528
2018-01-18T10:31:55.950Z,3560
2018-01-18T10:33:05.847Z,4608
2018-01-18T10:34:15.957Z,5060
2018-01-18T10:35:26.076Z,6504
2018-01-18T10:36:36.224Z,9448
2018-01-18T10:37:46.359Z,11404
2018-01-18T10:38:56.504Z,8076
2018-01-18T10:40:07.730Z,8000
2018-01-18T10:41:17.867Z,9508
2018-01-18T10:42:28.040Z,15456
2018-01-18T10:43:38.169Z,13108
2018-01-18T10:44:48.300Z,11308
2018-01-18T10:45:58.289Z,18240
2018-01-18T10:47:08.665Z,7156
2018-01-18T10:48:18.810Z,6852
2018-01-18T10:49:29.050Z,6396
2018-01-18T10:50:39.306Z,4888
2018-01-18T10:51:49.582Z,4568
2018-01-18T10:52:59.851Z,4248
2018-01-18T10:54:10.047Z,3948
2018-01-18T10:55:20.189Z,4212
2018-01-18T10:56:30.523Z,4912
2018-01-18T10:57:40.657Z,5736
2018-01-18T10:58:50.877Z,4800
2018-01-18T11:00:01.207Z,3668
2018-01-18T11:01:11.381Z,2368
2018-01-18T11:02:21.576Z,2376
2018-01-18T11:03:31.774Z,3200
2018-01-18T11:04:42.078Z,5080
2018-01-18T11:05:52.245Z,6684
2018-01-18T11:07:02.463Z,5948
2018-01-18T11:08:12.665Z,4416
2018-01-18T11:09:22.868Z,3816
2018-01-18T11:10:33.003Z,3572
2018-01-18T11:11:44.082Z,2568
2018-01-18T11:12:53.997Z,1904
2018-01-18T11:14:03.866Z,1852
2018-01-18T11:15:14.061Z,2228
2018-01-18T11:16:24.308Z,3292
2018-01-18T11:17:34.255Z,4692
2018-01-18T11:18:44.374Z,7144
2018-01-18T11:19:54.518Z,18336
2018-01-18T11:21:04.707Z,7548
2018-01-18T11:22:14.645Z,7460
2018-01-18T11:23:24.770Z,7604
2018-01-18T11:24:34.888Z,8072
2018-01-18T11:25:45.029Z,8212
2018-01-18T11:26:55.189Z,4944
2018-01-18T11:28:05.446Z,3040
2018-01-18T11:29:15.598Z,2956
2018-01-18T11:30:25.869Z,3280
2018-01-18T11:31:36.109Z,2888
2018-01-18T11:32:46.348Z,2644
2018-01-18T11:33:56.610Z,2000
2018-01-18T11:35:06.807Z,1836
2018-01-18T11:36:16.993Z,4688
2018-01-18T11:37:27.173Z,11004
2018-01-18T11:38:37.427Z,10740
2018-01-18T11:39:47.648Z,7608
2018-01-18T11:40:57.918Z,28864
2018-01-18T11:42:09.095Z,37824
2018-01-18T11:43:19.254Z,12916
2018-01-18T11:44:29.437Z,7076
2018-01-18T11:45:39.340Z,6960
2018-01-18T11:46:50.462Z,33056
2018-01-18T11:48:00.616Z,30464
2018-01-18T11:49:10.920Z,28864
2018-01-18T11:50:21.112Z,42816
2018-01-18T11:51:31.370Z,41888
2018-01-18T11:52:41.594Z,38368
2018-01-18T11:53:51.778Z,41312
2018-01-18T11:55:01.950Z,44416
2018-01-18T11:56:12.069Z,42976
2018-01-18T11:57:22.191Z,9948
2018-01-18T11:58:32.363Z,14656
2018-01-18T11:59:42.492Z,14892
2018-01-18T12:00:52.635Z,10028
2018-01-18T12:02:02.536Z,7892
2018-01-18T12:03:12.708Z,8880
2018-01-18T12:04:22.850Z,8400
2018-01-18T12:05:33.179Z,8780
2018-01-18T12:06:43.372Z,9844
2018-01-18T12:07:53.586Z,11224
2018-01-18T12:09:03.695Z,9544
2018-01-18T12:10:13.560Z,7104
2018-01-18T12:11:23.735Z,3016
2018-01-18T12:12:33.877Z,3064
2018-01-18T12:13:44.111Z,3512
2018-01-18T12:14:54.380Z,1944
2018-01-18T12:16:04.589Z,1360
2018-01-18T12:17:14.497Z,2508
2018-01-18T12:18:24.645Z,2344
2018-01-18T12:19:34.843Z,2040
2018-01-18T12:20:45.028Z,2240
2018-01-18T12:21:55.203Z,2800
2018-01-18T12:23:05.342Z,3512
2018-01-18T12:24:15.551Z,4236
2018-01-18T12:25:25.340Z,3180
2018-01-18T12:26:35.524Z,3332
2018-01-18T12:27:45.794Z,4012
2018-01-18T12:28:55.860Z,2032
2018-01-18T12:30:05.992Z,1532
2018-01-18T12:31:16.124Z,1532
2018-01-18T12:32:26.341Z,1340
2018-01-18T12:33:36.503Z,1124
2018-01-18T12:34:46.678Z,984
2018-01-18T12:35:56.560Z,968
2018-01-18T12:37:06.678Z,996
2018-01-18T12:38:16.841Z,728
2018-01-18T12:39:27.026Z,664
2018-01-18T12:40:37.195Z,720
2018-01-18T12:41:47.435Z,928
2018-01-18T12:42:57.887Z,968
2018-01-18T12:44:08.061Z,700
2018-01-18T12:45:18.218Z,740
2018-01-18T12:46:28.388Z,624
2018-01-18T12:47:38.623Z,648
2018-01-18T12:48:48.842Z,764
2018-01-18T12:49:59.049Z,1076
2018-01-18T12:51:09.028Z,1232
2018-01-18T12:52:19.154Z,1568
2018-01-18T12:53:29.297Z,1564
2018-01-18T12:54:39.482Z,1632
2018-01-18T12:55:49.669Z,1928
2018-01-18T12:56:59.565Z,2076
2018-01-18T12:58:09.787Z,1952
2018-01-18T12:59:19.931Z,1864
2018-01-18T13:00:30.116Z,1664
2018-01-18T13:01:40.297Z,1456
2018-01-18T13:02:50.602Z,1224
2018-01-18T13:04:00.840Z,1044
2018-01-18T13:05:11.035Z,1200
2018-01-18T13:06:21.247Z,1308
2018-01-18T13:07:31.440Z,1660
2018-01-18T13:08:41.609Z,1760
2018-01-18T13:09:51.868Z,1664
2018-01-18T13:11:02.034Z,1480
2018-01-18T13:12:12.265Z,1580
2018-01-18T13:13:22.142Z,1452
2018-01-18T13:14:32.288Z,1032
2018-01-18T13:15:42.160Z,1088
2018-01-18T13:16:52.272Z,1532
2018-01-18T13:18:02.442Z,1384
2018-01-18T13:19:12.668Z,1692
2018-01-18T13:20:22.889Z,2072
2018-01-18T13:21:33.087Z,1280
2018-01-18T13:22:43.401Z,1252
2018-01-18T13:23:53.566Z,1012
2018-01-18T13:25:03.829Z,1328
2018-01-18T13:26:14.071Z,1284
2018-01-18T13:27:24.268Z,1416
2018-01-18T13:28:35.382Z,1588
2018-01-18T13:29:45.586Z,1612
2018-01-18T13:30:55.802Z,1564
2018-01-18T13:32:06.052Z,1108
2018-01-18T13:33:16.268Z,1328
2018-01-18T13:34:26.487Z,1064
2018-01-18T13:35:36.687Z,1468
2018-01-18T13:36:46.946Z,1548
2018-01-18T13:37:57.078Z,1788
2018-01-18T13:39:07.301Z,2080
2018-01-18T13:40:17.524Z,1508
2018-01-18T13:41:27.846Z,1400
2018-01-18T13:42:38.124Z,1132
2018-01-18T13:43:48.379Z,1168
2018-01-18T13:44:58.545Z,1128
2018-01-18T13:46:08.785Z,836
2018-01-18T13:47:18.998Z,744
2018-01-18T13:48:29.197Z,828
2018-01-18T13:49:39.427Z,940
2018-01-18T13:50:49.571Z,1028
2018-01-18T13:51:59.811Z,1264
2018-01-18T13:53:10.004Z,1448
2018-01-18T13:54:20.333Z,1864
2018-01-18T13:55:30.591Z,1780
2018-01-18T13:56:40.822Z,1712
2018-01-18T13:57:50.996Z,1284
2018-01-18T13:59:01.141Z,1528
2018-01-18T14:00:11.431Z,1448
2018-01-18T14:01:21.611Z,1424
2018-01-18T14:02:31.874Z,1592
2018-01-18T14:03:42.171Z,1728
2018-01-18T14:04:52.354Z,1812
2018-01-18T14:06:02.573Z,2128
2018-01-18T14:07:12.859Z,1952
2018-01-18T14:08:23.088Z,1772
2018-01-18T14:09:33.276Z,2292
2018-01-18T14:10:43.440Z,2260
2018-01-18T14:11:53.584Z,2288
2018-01-18T14:13:03.825Z,2476
2018-01-18T14:14:14.118Z,2564
2018-01-18T14:15:24.300Z,2232
2018-01-18T14:16:34.560Z,2096
2018-01-18T14:17:44.789Z,1740
2018-01-18T14:18:55.084Z,1752
2018-01-18T14:20:05.236Z,2096
2018-01-18T14:21:15.447Z,1956
2018-01-18T14:22:25.656Z,1540
2018-01-18T14:23:35.814Z,1368
2018-01-18T14:24:46.087Z,1484
2018-01-18T14:25:56.370Z,1288
2018-01-18T14:27:06.595Z,1364
2018-01-18T14:28:16.841Z,1216
2018-01-18T14:29:27.099Z,1328
2018-01-18T14:30:37.284Z,1152
2018-01-18T14:31:47.456Z,1296
2018-01-18T14:32:57.612Z,1200
2018-01-18T14:34:07.787Z,1200
2018-01-18T14:35:18.131Z,1224
2018-01-18T14:36:28.412Z,1300
2018-01-18T14:37:38.599Z,1436
2018-01-18T14:38:48.818Z,1416
2018-01-18T14:39:58.984Z,1420
2018-01-18T14:41:09.229Z,1316
2018-01-18T14:42:19.441Z,1188
2018-01-18T14:43:29.701Z,1312
2018-01-18T14:44:39.888Z,1296
2018-01-18T14:45:50.087Z,1188
2018-01-18T14:47:00.310Z,1160
2018-01-18T14:48:10.594Z,1128
2018-01-18T14:49:20.830Z,984
2018-01-18T14:50:30.734Z,836
2018-01-18T14:51:40.928Z,812
2018-01-18T14:52:51.081Z,752
2018-01-18T14:54:01.242Z,684
2018-01-18T14:55:11.418Z,680
2018-01-18T14:56:21.338Z,580
2018-01-18T14:57:31.484Z,600
2018-01-18T14:58:41.667Z,524
2018-01-18T14:59:51.704Z,468
2018-01-18T15:01:02.035Z,444
2018-01-18T15:02:12.261Z,452
2018-01-18T15:03:22.481Z,420
2018-01-18T15:04:32.725Z,412
2018-01-18T15:05:42.637Z,372
2018-01-18T15:06:52.794Z,336
2018-01-18T15:08:02.949Z,284
2018-01-18T15:09:13.123Z,240
2018-01-18T15:10:23.295Z,240
2018-01-18T15:11:33.513Z,208
2018-01-18T15:12:43.705Z,172
2018-01-18T15:13:53.903Z,168
2018-01-18T15:15:04.081Z,168
2018-01-18T15:16:14.371Z,152
2018-01-18T15:17:24.540Z,148
2018-01-18T15:18:34.906Z,180
2018-01-18T15:19:45.130Z,188
2018-01-18T15:20:55.290Z,232
2018-01-18T15:22:05.499Z,232
2018-01-18T15:23:15.878Z,256
2018-01-18T15:24:26.042Z,288
2018-01-18T15:25:36.210Z,332
2018-01-18T15:26:46.417Z,480
2018-01-18T15:27:56.314Z,396
2018-01-18T15:29:06.496Z,388
2018-01-18T15:30:16.740Z,432
2018-01-18T15:31:26.956Z,368
2018-01-18T15:32:37.196Z,336
2018-01-18T15:33:47.425Z,316
2018-01-18T15:34:57.603Z,284
2018-01-18T15:36:07.731Z,224
2018-01-18T15:37:17.895Z,188
2018-01-18T15:38:28.192Z,128
2018-01-18T15:39:38.497Z,116
2018-01-18T15:40:48.698Z,112
2018-01-18T15:41:59.930Z,88
2018-01-18T15:43:10.076Z,72
2018-01-18T15:44:20.241Z,60
2018-01-18T15:45:30.474Z,52
2018-01-18T15:46:41.684Z,52
2018-01-18T15:47:51.927Z,40
2018-01-18T15:49:02.060Z,36
2018-01-18T15:50:13.382Z,36
2018-01-18T15:51:23.554Z,28
2018-01-18T15:52:33.779Z,24
2018-01-18T15:53:44.101Z,20
2018-01-18T15:54:54.325Z,16
2018-01-18T15:56:04.531Z,16
2018-01-18T15:57:14.675Z,8
2018-01-18T15:58:24.874Z,12
2018-01-18T15:59:35.050Z,8
2018-01-18T16:00:45.582Z,8
2018-01-18T16:01:55.871Z,4
2018-01-18T16:03:06.137Z,4
2018-01-18T16:04:16.373Z,4
2018-01-18T16:05:26.567Z,4
2018-01-18T16:06:36.876Z,0
2018-01-18T16:07:47.132Z,0
2018-01-18T16:08:57.371Z,0
2018-01-18T16:10:07.309Z,4
2018-01-18T16:11:17.782Z,4
2018-01-18T16:12:28.043Z,0
2018-01-18T16:13:38.232Z,0
2018-01-18T16:14:48.406Z,0
2018-01-18T16:15:58.660Z,0
2018-01-18T16:17:08.843Z,0
2018-01-18T16:18:19.041Z,0
2018-01-18T16:19:29.282Z,0
2018-01-18T16:20:39.616Z,0
2018-01-18T16:21:49.963Z,0
2018-01-18T16:23:00.211Z,0
2018-01-18T16:24:10.482Z,0
2018-01-18T16:25:20.711Z,0
2018-01-18T16:26:31.117Z,0